Three Oaks, Michigan
Current Conditions -  °F | °C
As of 6:15 AM on Monday 20 Oct 2014 (Local Time) from KMGC Reporting Station
Clear Clear  
Wind Chill: 42°   Ceiling: Unl
Heat Index: 46°   Visibility: 10mi
Dew Point: 41°   Wind: 9mph
Humidity: 81%   Direction: 200°SSW
Pressure: 29.84"   Gusts: NA
Location:  41.8°N, 86.61°W
Report Text: KMGC 201015Z AUTO 20008KT 10SM CLR 08/05 A2984 RMK AO2
Loading
Personal Weather Stations






























Interactive Weather Map
Tropical Storm Tracking
New forecast layout! Learn more

10-Day Weather Forecast

Advertisements
Track Severe Weather on mobile